CST,Max TemperatureF,Mean TemperatureF,Min TemperatureF,Max Dew PointF,MeanDew PointF,Min DewpointF,Max Humidity, Mean Humidity, Min Humidity, Max Sea Level PressureIn, Mean Sea Level PressureIn, Min Sea Level PressureIn, Max VisibilityMiles, Mean VisibilityMiles, Min VisibilityMiles, Max Wind SpeedMPH, Mean Wind SpeedMPH, Max Gust SpeedMPH,PrecipitationIn, CloudCover, Events, WindDirDegrees
2012-11-1,35,30,26,32,26,21,93,84,74,30.15,30.07,29.98,10,10,7,29,20,31,0.00,8,,338
2012-11-2,30,27,24,25,22,19,86,80,74,30.21,30.18,30.13,10,10,10,12,7,,0.00,8,,74
2012-11-3,33,30,28,27,26,25,93,82,70,30.27,30.23,30.20,10,10,7,10,6,,0.00,6,Snow,91
2012-11-4,33,30,26,28,27,25,100,90,81,30.26,30.24,30.22,10,9,1,9,4,,0.00,7,,102
2012-11-5,37,34,32,32,29,27,93,81,75,30.25,30.03,29.68,10,9,1,26,13,20,0.06,7,Rain-Snow,159
2012-11-6,35,34,33,34,33,32,100,95,93,29.96,29.75,29.58,10,8,2,25,16,30,0.14,8,Rain-Snow,298
2012-11-7,39,36,33,34,32,30,100,87,81,30.04,29.97,29.83,10,9,0,17,8,17,0.00,7,Fog,219
2012-11-8,39,34,28,36,32,23,93,84,75,30.19,29.92,29.70,10,10,7,25,17,30,0.05,7,Rain,324
2012-11-9,28,26,24,25,19,12,93,74,55,30.26,30.20,30.12,10,10,2,18,14,23,0.00,8,,41
2012-11-10,28,26,24,28,24,16,100,86,64,30.11,29.82,29.49,10,4,1,14,10,22,0.00,8,Rain-Snow,67
2012-11-11,30,24,19,28,22,16,93,89,80,29.66,29.57,29.42,10,8,2,13,8,,0.00,8,Snow,259
2012-11-12,26,22,17,23,19,16,93,88,80,30.10,29.85,29.65,10,8,2,20,11,24,0.00,8,Snow,274
2012-11-13,23,20,17,19,17,14,93,86,80,30.22,30.17,30.10,10,10,10,9,5,,0.00,6,,233
2012-11-14,35,29,23,32,26,19,93,86,80,30.22,30.09,29.92,10,10,10,16,5,,0.07,3,,165
2012-11-15,33,26,19,30,17,9,93,74,54,30.42,30.24,29.91,10,10,10,26,14,32,0.00,1,,287
2012-11-16,35,28,21,25,19,14,80,65,52,30.41,30.25,30.12,10,10,10,25,15,29,0.00,1,,170
2012-11-17,35,34,32,32,29,23,93,81,65,30.12,30.08,30.06,10,10,5,18,11,,0.00,3,,153
2012-11-18,46,40,35,34,33,30,87,79,62,30.06,29.99,29.92,10,10,10,12,5,,0.00,1,,131
2012-11-19,42,35,28,36,32,27,100,84,66,30.11,29.98,29.89,10,9,5,18,9,,0.00,2,Thunderstorm,251
2012-11-20,37,30,26,30,29,27,100,90,70,30.13,30.00,29.82,10,6,0,20,7,,0.00,3,Fog,158
2012-11-21,42,37,32,34,30,27,87,78,61,29.86,29.76,29.54,10,10,10,13,4,,0.00,0,,124
2012-11-22,41,29,17,34,25,12,100,87,76,30.09,29.72,29.47,10,8,2,29,14,34,0.00,6,Snow,324
2012-11-23,17,12,8,14,10,7,92,82,68,30.38,30.29,30.10,10,9,3,25,21,32,0.00,5,Snow,313
2012-11-24,21,14,8,18,13,5,93,89,79,30.30,29.96,29.74,10,7,0,25,11,25,0.00,7,Snow,200
2012-11-25,19,11,3,16,8,0,93,82,73,30.18,29.93,29.77,10,6,1,28,16,28,0.00,8,Snow,298
2012-11-26,17,6,-4,12,1,-8,92,83,73,30.31,30.22,30.05,10,8,0,15,10,,0.00,6,Snow,247
2012-11-27,19,12,6,16,5,0,93,77,67,30.21,30.10,30.02,10,10,10,18,12,23,0.00,5,Snow,305
2012-11-28,24,15,6,21,9,1,93,83,73,30.22,30.11,29.98,10,10,5,22,9,29,0.00,7,Snow,251
2012-11-29,14,10,6,7,5,1,85,77,57,30.29,30.25,30.18,10,10,4,14,9,,0.00,7,Snow,42
2012-11-30,28,20,12,27,17,7,93,88,79,30.27,30.09,29.88,10,8,2,24,10,18,0.00,8,Snow,137